Flight Track Log - Related Links

Times and Time Zones

All times are in EDT time to prevent confusion due to time zone crossing. See the DAL3606 flight status page for this flight to view local times or setup timezone preferences in your user account.

Time Position Orientation Groundspeed Altitude Reporting Facility
EDT Latitude Longitude Course Direction KTS MPH feet Rate Location/Type
Sat 02:11:00 PM 44.8833 -93.1833 106° East 156 180 1,900  Level Minneapolis TRACON
Sat 02:11:50 PM 44.8711 -93.1225 106° East 167 192 3,000 1,459 Climbing Minneapolis Center
Sat 02:12:51 PM 44.9106 -93.0594 49° Northeast 259 298 4,600 2,195 Climbing Minneapolis Center
Sat 02:13:53 PM 44.9856 -93.0183 21° North 288 331 7,500 2,634 Climbing Minneapolis Center
Sat 02:14:54 PM 45.0575 -92.9564 31° Northeast 301 346 10,000 1,742 Climbing Minneapolis Center
Sat 02:15:57 PM 45.1006 -92.8417 62° Northeast 331 381 11,100 1,403 Climbing Minneapolis Center
Sat 02:16:58 PM 45.1475 -92.7158 62° Northeast 358 412 12,900 1,659 Climbing Minneapolis Center
Sat 02:18:00 PM 45.1961 -92.5831 63° Northeast 378 435 14,500 1,742 Climbing Minneapolis Center
Sat 02:19:02 PM 45.2556 -92.4214 62° Northeast 384 442 16,500 1,220 Climbing Minneapolis Center
Sat 02:20:03 PM 45.2908 -92.2767 71° East 389 448 17,000 244 Climbing Minneapolis Center
Sat 02:21:05 PM 45.3017 -92.1228 84° East 393 452 17,000  Level Minneapolis Center
Sat 02:22:07 PM 45.3125 -91.9706 84° East 390 449 17,000  Level Minneapolis Center
Sat 02:23:08 PM 45.2872 -91.8292 104° East 380 437 17,000  Level Minneapolis Center
Sat 02:24:10 PM 45.2544 -91.6903 108° East 374 430 17,000  Level Minneapolis Center
Sat 02:25:12 PM 45.2217 -91.5503 108° East 374 430 17,000  Level Minneapolis Center
Sat 02:26:13 PM 45.1839 -91.3828 108° East 373 429 17,000  Level Minneapolis Center
Sat 02:27:15 PM 45.1511 -91.2433 108° East 373 429 17,000 -532 Level Minneapolis Center
Sat 02:28:17 PM 45.1175 -91.0950 108° East 377 434 15,900 -1,073 Descending Minneapolis Center
Sat 02:29:18 PM 45.0844 -90.9561 109° East 385 443 14,800 -1,073 Descending Minneapolis Center
Sat 02:30:20 PM 45.0519 -90.8103 107° East 378 435 13,700 -1,065 Descending Minneapolis Center
Sat 02:31:22 PM 45.0211 -90.6753 108° East 366 421 12,600 -1,073 Descending Minneapolis Center
Sat 02:32:23 PM 44.9892 -90.5433 109° East 358 412 11,500 -1,171 Descending Minneapolis Center
Sat 02:33:25 PM 44.9550 -90.4039 109° East 350 403 10,200 -774 Descending Minneapolis Center
Sat 02:34:27 PM 44.9236 -90.2728 109° East 341 392 9,900 -146 Descending Minneapolis Center
Sat 02:35:28 PM 44.8931 -90.1419 108° East 336 387 9,900 -439 Level Minneapolis Center
Sat 02:36:30 PM 44.8461 -90.0417 123° Southeast 285 328 9,000 -1,403 Descending Minneapolis Center
Sat 02:37:32 PM 44.7972 -89.9531 128° Southeast 276 318 7,000 -1,839 Descending Minneapolis Center
Sat 02:38:34 PM 44.7594 -89.8703 123° Southeast 260 299 5,200 -1,756 Descending Minneapolis Center
Sat 02:39:35 PM 44.7639 -89.7781 86° East 228 262 3,400 -1,610 Descending Minneapolis Center
Sat 02:40:37 PM 44.7736 -89.7147 78° East 181 208 1,900 -1,452 Descending Minneapolis Center
Sat 02:42:00 PM 44.7667 -89.6667 125° Southeast  Level FlightAware

Login

Don't have an account? Register now (free) for customized features, flight alerts, and more!